createdAt,value
2023-08-08T00:02:15.126Z,83.42
2023-08-08T00:04:41.582Z,83.54
2023-08-08T00:07:08.113Z,83.42
2023-08-08T00:09:34.630Z,83.59
2023-08-08T00:12:01.210Z,83.94
2023-08-08T00:14:27.833Z,84.33
2023-08-08T00:16:54.265Z,84.03
2023-08-08T00:19:20.815Z,84.24
2023-08-08T00:21:47.288Z,84.12
2023-08-08T00:24:13.719Z,84.42
2023-08-08T00:26:40.155Z,84.38
2023-08-08T00:29:07.385Z,84.49
2023-08-08T00:31:33.881Z,84.26
2023-08-08T00:34:00.346Z,84.80
2023-08-08T00:36:26.917Z,84.81
2023-08-08T00:38:53.355Z,84.74
2023-08-08T00:41:19.834Z,84.88
2023-08-08T00:43:46.280Z,84.75
2023-08-08T00:46:12.922Z,84.98
2023-08-08T00:48:39.558Z,84.79
2023-08-08T00:51:06.329Z,84.97
2023-08-08T00:53:32.825Z,85.18
2023-08-08T00:55:59.842Z,85.24
2023-08-08T00:58:26.780Z,85.27
2023-08-08T01:00:55.867Z,85.15
2023-08-08T01:03:22.538Z,85.37
2023-08-08T01:05:56.849Z,85.69
2023-08-08T01:08:35.146Z,85.49
2023-08-08T01:11:02.866Z,85.59
2023-08-08T01:13:32.868Z,85.65
2023-08-08T01:16:00.867Z,85.50
2023-08-08T01:18:28.260Z,85.56
2023-08-08T01:20:55.645Z,85.36
2023-08-08T01:23:42.118Z,85.81
2023-08-08T01:26:08.647Z,85.50
2023-08-08T01:28:36.173Z,85.69
2023-08-08T01:31:02.740Z,85.27
2023-08-08T01:33:29.200Z,85.37
2023-08-08T01:36:05.967Z,85.51
2023-08-08T01:38:41.744Z,85.01
2023-08-08T01:41:09.472Z,85.19
2023-08-08T01:43:39.174Z,85.54
2023-08-08T01:46:06.725Z,85.40
2023-08-08T01:48:33.935Z,85.10
2023-08-08T01:51:00.948Z,85.35
2023-08-08T01:53:27.618Z,85.42
2023-08-08T01:55:54.078Z,85.27
2023-08-08T01:58:20.602Z,85.09
2023-08-08T02:00:47.918Z,84.58
2023-08-08T02:03:14.569Z,84.43
2023-08-08T02:05:41.220Z,84.44
2023-08-08T02:08:07.650Z,84.35
2023-08-08T02:10:34.251Z,83.84
2023-08-08T02:13:00.702Z,84.34
2023-08-08T02:15:27.134Z,84.05
2023-08-08T02:17:53.648Z,84.03
2023-08-08T02:20:20.267Z,84.35
2023-08-08T02:22:46.709Z,83.81
2023-08-08T02:25:13.345Z,83.80
2023-08-08T02:27:39.802Z,84.23
2023-08-08T02:30:06.955Z,84.24
2023-08-08T02:32:33.467Z,84.04
2023-08-08T02:35:00.035Z,84.36
2023-08-08T02:37:26.516Z,84.47
2023-08-08T02:39:53.059Z,84.49
2023-08-08T02:42:19.504Z,84.17
2023-08-08T02:44:45.986Z,84.15
2023-08-08T02:47:12.466Z,84.19
2023-08-08T02:49:38.944Z,84.46
2023-08-08T02:52:05.622Z,84.22
2023-08-08T02:54:32.047Z,84.37
2023-08-08T02:56:58.512Z,84.23
2023-08-08T02:59:24.933Z,83.92
2023-08-08T03:01:51.391Z,83.88
2023-08-08T03:04:17.988Z,83.64
2023-08-08T03:06:44.443Z,83.81
2023-08-08T03:09:10.886Z,83.66
2023-08-08T03:11:38.512Z,83.78
2023-08-08T03:14:04.989Z,83.96
2023-08-08T03:16:31.438Z,83.75
2023-08-08T03:18:57.871Z,83.52
2023-08-08T03:21:24.317Z,83.59
2023-08-08T03:23:50.770Z,83.20
2023-08-08T03:26:17.244Z,83.17
2023-08-08T03:28:43.822Z,82.91
2023-08-08T03:31:10.332Z,82.56
2023-08-08T03:33:36.791Z,82.90
2023-08-08T03:36:03.306Z,82.51
2023-08-08T03:38:29.734Z,82.46
2023-08-08T03:40:56.191Z,82.69
2023-08-08T03:43:22.654Z,82.72
2023-08-08T03:45:50.067Z,82.31
2023-08-08T03:48:16.676Z,82.59
2023-08-08T03:50:43.159Z,82.65
2023-08-08T03:53:09.587Z,83.19
2023-08-08T03:55:36.059Z,83.01
2023-08-08T03:58:02.593Z,82.92
2023-08-08T04:00:29.043Z,82.88
2023-08-08T04:02:55.713Z,82.70
2023-08-08T04:05:22.201Z,82.71
2023-08-08T04:07:48.658Z,82.67
2023-08-08T04:10:15.244Z,82.64
2023-08-08T04:12:41.689Z,82.54
2023-08-08T04:15:08.655Z,82.51
2023-08-08T04:17:35.129Z,82.42
2023-08-08T04:20:01.672Z,82.36
2023-08-08T04:22:28.088Z,82.28
2023-08-08T04:24:54.536Z,82.30
2023-08-08T04:27:20.958Z,82.25
2023-08-08T04:29:47.392Z,82.27
2023-08-08T04:32:13.845Z,82.22
2023-08-08T04:34:40.301Z,82.35
2023-08-08T04:37:06.762Z,82.33
2023-08-08T04:39:33.291Z,82.36
2023-08-08T04:42:00.021Z,82.18
2023-08-08T04:44:26.665Z,82.46
2023-08-08T04:46:53.233Z,82.50
2023-08-08T04:49:19.650Z,82.39
2023-08-08T04:51:46.084Z,81.64
2023-08-08T04:54:12.523Z,81.52
2023-08-08T04:56:38.976Z,81.57
2023-08-08T04:59:05.431Z,80.92
2023-08-08T05:01:31.915Z,80.33
2023-08-08T05:03:58.458Z,80.39
2023-08-08T05:06:25.023Z,80.37
2023-08-08T05:08:52.902Z,80.46
2023-08-08T05:11:19.340Z,79.92
2023-08-08T05:13:46.010Z,79.69
2023-08-08T05:16:12.514Z,79.63
2023-08-08T05:18:39.030Z,79.23
2023-08-08T05:21:05.467Z,79.58
2023-08-08T05:23:31.930Z,79.21
2023-08-08T05:25:58.422Z,79.40
2023-08-08T05:28:25.004Z,78.88
2023-08-08T05:30:51.480Z,78.52
2023-08-08T05:33:17.904Z,79.13
2023-08-08T05:35:44.348Z,78.64
2023-08-08T05:38:10.907Z,78.30
2023-08-08T05:40:37.450Z,78.50
2023-08-08T05:43:04.652Z,78.21
2023-08-08T05:45:31.147Z,78.35
2023-08-08T05:47:57.786Z,78.03
2023-08-08T05:50:24.529Z,77.54
2023-08-08T05:52:50.950Z,77.27
2023-08-08T05:55:17.551Z,77.38
2023-08-08T05:57:44.040Z,76.77
2023-08-08T06:00:12.581Z,76.81
2023-08-08T06:02:39.199Z,76.75
2023-08-08T06:05:06.491Z,76.65
2023-08-08T06:07:33.040Z,76.35
2023-08-08T06:09:59.494Z,76.57
2023-08-08T06:12:25.922Z,76.25
2023-08-08T06:14:52.350Z,75.73
2023-08-08T06:17:18.801Z,75.62
2023-08-08T06:19:45.323Z,75.67
2023-08-08T06:22:12.600Z,75.28
2023-08-08T06:24:40.114Z,75.33
2023-08-08T06:27:06.697Z,75.16
2023-08-08T06:29:33.208Z,74.94
2023-08-08T06:31:59.986Z,74.87
2023-08-08T06:34:26.828Z,74.99
2023-08-08T06:36:53.413Z,74.57
2023-08-08T06:39:22.270Z,75.07
2023-08-08T06:41:49.122Z,74.80
2023-08-08T06:44:15.658Z,74.80
2023-08-08T06:46:42.096Z,74.71
2023-08-08T06:49:09.906Z,73.65
2023-08-08T06:51:36.490Z,75.33
2023-08-08T06:54:03.104Z,76.47
2023-08-08T06:56:29.985Z,74.76
2023-08-08T06:58:56.462Z,74.27
2023-08-08T07:01:22.975Z,74.79
2023-08-08T07:03:49.593Z,73.76
2023-08-08T07:06:19.065Z,74.83
2023-08-08T07:08:45.516Z,73.90
2023-08-08T07:11:11.969Z,73.51
2023-08-08T07:13:38.440Z,73.84
2023-08-08T07:16:05.260Z,72.77
2023-08-08T07:18:31.824Z,71.83
2023-08-08T07:20:58.302Z,71.57
2023-08-08T07:23:24.870Z,71.93
2023-08-08T07:25:51.882Z,69.68
2023-08-08T07:28:18.898Z,70.10
2023-08-08T07:30:45.513Z,70.68
2023-08-08T07:33:12.008Z,69.83
2023-08-08T07:35:38.480Z,68.07
2023-08-08T07:38:05.057Z,67.90
2023-08-08T07:40:32.277Z,67.41
2023-08-08T07:42:58.792Z,67.92
2023-08-08T07:45:25.271Z,67.84
2023-08-08T07:47:51.735Z,67.01
2023-08-08T07:50:18.248Z,66.90
2023-08-08T07:52:44.698Z,67.56
2023-08-08T07:55:11.240Z,66.85
2023-08-08T07:57:37.684Z,67.87
2023-08-08T08:00:12.621Z,67.04
2023-08-08T08:02:40.417Z,66.39
2023-08-08T08:05:08.901Z,66.05
2023-08-08T08:07:36.137Z,65.26
2023-08-08T08:10:04.144Z,64.93
2023-08-08T08:12:31.801Z,65.66
2023-08-08T08:14:59.195Z,65.65
2023-08-08T08:17:25.857Z,65.28
2023-08-08T08:19:52.626Z,64.88
2023-08-08T08:22:19.148Z,64.28
2023-08-08T08:24:47.081Z,63.54
2023-08-08T08:27:14.262Z,63.17
2023-08-08T08:29:41.043Z,63.58
2023-08-08T08:32:07.642Z,63.57
2023-08-08T08:34:34.099Z,61.47
2023-08-08T08:37:00.550Z,61.46
2023-08-08T08:39:26.972Z,61.34
2023-08-08T08:41:59.961Z,62.18
2023-08-08T08:44:28.750Z,61.63
2023-08-08T08:46:56.724Z,63.48
2023-08-08T08:49:23.801Z,61.98
2023-08-08T08:51:50.364Z,62.51
2023-08-08T08:54:17.983Z,61.34
2023-08-08T08:56:46.319Z,60.79
2023-08-08T08:59:12.824Z,60.00
2023-08-08T09:01:39.855Z,61.12
2023-08-08T09:04:08.769Z,61.63
2023-08-08T09:06:36.361Z,62.10
2023-08-08T09:09:15.343Z,61.70
2023-08-08T09:11:48.551Z,61.85
2023-08-08T09:14:22.059Z,62.42
2023-08-08T09:16:49.600Z,62.51
2023-08-08T09:19:19.069Z,60.77
2023-08-08T09:21:45.825Z,59.66
2023-08-08T09:24:12.718Z,60.12
2023-08-08T09:26:40.527Z,60.49
2023-08-08T09:29:07.517Z,60.09
2023-08-08T09:31:35.507Z,60.54
2023-08-08T09:34:03.709Z,60.06
2023-08-08T09:36:32.361Z,60.04
2023-08-08T09:39:00.704Z,59.20
2023-08-08T09:41:27.402Z,59.26
2023-08-08T09:43:54.668Z,59.35
2023-08-08T09:46:21.856Z,59.46
2023-08-08T09:48:49.001Z,59.63
2023-08-08T09:51:15.722Z,58.77
2023-08-08T09:53:42.822Z,59.37
2023-08-08T09:56:09.790Z,58.00
2023-08-08T09:58:36.443Z,58.27
2023-08-08T10:01:05.780Z,58.33
2023-08-08T10:03:33.695Z,56.46
2023-08-08T10:06:02.138Z,57.34
2023-08-08T10:08:28.645Z,58.57
2023-08-08T10:10:57.219Z,58.90
2023-08-08T10:13:25.692Z,58.45
2023-08-08T10:15:53.574Z,57.40
2023-08-08T10:18:22.877Z,58.02
2023-08-08T10:20:50.821Z,57.74
2023-08-08T10:23:20.880Z,57.83
2023-08-08T10:25:49.866Z,56.97
2023-08-08T10:28:27.025Z,57.07
2023-08-08T10:30:57.785Z,57.62
2023-08-08T10:33:26.494Z,57.25
2023-08-08T10:35:59.597Z,56.14
2023-08-08T10:38:27.274Z,56.51
2023-08-08T10:40:59.460Z,56.92
2023-08-08T10:43:28.161Z,56.88
2023-08-08T10:46:07.608Z,57.28
2023-08-08T10:48:51.355Z,56.93
2023-08-08T10:51:18.098Z,56.50
2023-08-08T10:53:44.843Z,56.05
2023-08-08T10:56:14.888Z,55.06
2023-08-08T10:58:43.218Z,54.30
2023-08-08T11:01:11.851Z,54.24
2023-08-08T11:03:40.302Z,55.52
2023-08-08T11:06:10.171Z,55.12
2023-08-08T11:08:39.336Z,56.00
2023-08-08T11:11:07.286Z,56.05
2023-08-08T11:13:34.991Z,55.02
2023-08-08T11:16:03.193Z,55.82
2023-08-08T11:18:30.002Z,55.95
2023-08-08T11:21:05.281Z,56.20
2023-08-08T11:23:40.035Z,55.64
2023-08-08T11:28:36.320Z,55.49
2023-08-08T11:31:02.931Z,55.59
2023-08-08T11:33:29.496Z,56.01
2023-08-08T11:35:57.742Z,55.00
2023-08-08T11:38:25.122Z,55.54
2023-08-08T11:40:53.522Z,55.25
2023-08-08T11:43:20.763Z,55.31
2023-08-08T11:45:50.491Z,55.08
2023-08-08T11:48:16.971Z,55.06
2023-08-08T11:50:45.594Z,55.28
2023-08-08T11:53:12.978Z,55.38
2023-08-08T11:55:39.660Z,54.38
2023-08-08T11:58:06.849Z,55.04
2023-08-08T12:00:33.550Z,55.07
2023-08-08T12:03:03.058Z,54.91
2023-08-08T12:05:31.066Z,55.11
2023-08-08T12:07:59.805Z,55.15
2023-08-08T12:10:26.453Z,55.01
2023-08-08T12:12:56.420Z,55.07
2023-08-08T12:15:22.974Z,54.54
2023-08-08T12:17:50.350Z,53.98
2023-08-08T12:20:16.959Z,53.91
2023-08-08T12:22:43.589Z,53.74
2023-08-08T12:25:10.093Z,53.93
2023-08-08T12:27:36.706Z,52.40
2023-08-08T12:30:03.398Z,52.68
2023-08-08T12:32:30.030Z,52.84
2023-08-08T12:34:57.269Z,54.23
2023-08-08T12:37:24.766Z,54.03
2023-08-08T12:39:51.937Z,53.44
2023-08-08T12:42:18.764Z,53.49
2023-08-08T12:44:46.138Z,53.09
2023-08-08T12:47:13.716Z,53.47
2023-08-08T12:49:42.056Z,52.74
2023-08-08T12:52:08.672Z,53.12
2023-08-08T12:54:35.559Z,53.82
2023-08-08T12:57:02.384Z,53.23
2023-08-08T12:59:29.190Z,52.43
2023-08-08T13:01:55.644Z,51.57
2023-08-08T13:04:22.204Z,50.71
2023-08-08T13:06:49.368Z,49.81
2023-08-08T13:09:16.675Z,50.71
2023-08-08T13:11:43.231Z,52.07
2023-08-08T13:14:09.776Z,52.72
2023-08-08T13:16:36.339Z,52.75
2023-08-08T13:19:03.094Z,52.56
2023-08-08T13:21:29.549Z,53.50
2023-08-08T13:23:56.028Z,53.84
2023-08-08T13:26:22.455Z,54.37
2023-08-08T13:28:50.796Z,54.57
2023-08-08T13:31:17.736Z,54.20
2023-08-08T13:33:44.279Z,53.79
2023-08-08T13:36:10.897Z,52.86
2023-08-08T13:38:37.343Z,53.90
2023-08-08T13:41:04.450Z,54.25
2023-08-08T13:43:31.584Z,54.56
2023-08-08T13:45:58.216Z,55.17
2023-08-08T13:48:24.731Z,55.28
2023-08-08T13:50:51.920Z,54.95
2023-08-08T13:53:18.430Z,54.49
2023-08-08T13:55:45.730Z,55.18
2023-08-08T13:58:12.285Z,54.40
2023-08-08T14:00:38.867Z,54.81
2023-08-08T14:03:05.967Z,54.62
2023-08-08T14:05:32.731Z,55.49
2023-08-08T14:07:59.232Z,56.10
2023-08-08T14:10:25.673Z,56.63
2023-08-08T14:12:52.115Z,56.21
2023-08-08T14:15:18.561Z,56.70
2023-08-08T14:17:46.541Z,57.89
2023-08-08T14:20:13.206Z,56.90
2023-08-08T14:22:39.700Z,57.09
2023-08-08T14:25:07.310Z,57.20
2023-08-08T14:27:33.997Z,57.09
2023-08-08T14:30:01.032Z,57.31
2023-08-08T14:32:27.584Z,58.70
2023-08-08T14:34:54.352Z,57.89
2023-08-08T14:37:21.358Z,57.54
2023-08-08T14:39:48.157Z,57.95
2023-08-08T14:42:15.236Z,57.94
2023-08-08T14:44:41.693Z,57.34
2023-08-08T14:47:08.499Z,55.52
2023-08-08T14:49:35.044Z,54.91
2023-08-08T14:52:01.666Z,54.99
2023-08-08T14:54:28.337Z,55.00
2023-08-08T14:56:54.775Z,55.49
2023-08-08T15:02:05.539Z,55.59
2023-08-08T15:04:33.670Z,55.78
2023-08-08T15:07:00.598Z,55.44
2023-08-08T15:09:27.266Z,54.96
2023-08-08T15:11:53.678Z,54.26
2023-08-08T15:14:20.142Z,53.76
2023-08-08T15:16:52.191Z,54.05
2023-08-08T15:19:18.764Z,53.95
2023-08-08T15:21:45.202Z,54.21
2023-08-08T15:24:11.625Z,53.40
2023-08-08T15:26:38.117Z,54.24
2023-08-08T15:29:04.755Z,54.52
2023-08-08T15:31:33.117Z,53.78
2023-08-08T15:34:00.256Z,52.14
2023-08-08T15:36:27.052Z,52.18
2023-08-08T15:38:53.474Z,52.83
2023-08-08T15:41:19.968Z,53.09
2023-08-08T15:43:47.291Z,53.25
2023-08-08T15:46:14.172Z,53.50
2023-08-08T15:48:40.634Z,53.38
2023-08-08T15:51:07.136Z,53.04
2023-08-08T15:53:35.081Z,53.14
2023-08-08T15:56:02.649Z,53.21
2023-08-08T15:58:29.298Z,53.49
2023-08-08T16:00:56.709Z,53.34
2023-08-08T16:03:23.334Z,52.89
2023-08-08T16:05:49.872Z,53.47
2023-08-08T16:08:17.628Z,53.84
2023-08-08T16:10:45.394Z,54.21
2023-08-08T16:13:11.936Z,54.49
2023-08-08T16:15:38.369Z,55.07
2023-08-08T16:18:04.881Z,55.07
2023-08-08T16:20:31.426Z,55.09
2023-08-08T16:22:57.924Z,55.44
2023-08-08T16:25:24.460Z,54.73
2023-08-08T16:27:50.913Z,54.93
2023-08-08T16:30:17.552Z,54.75
2023-08-08T16:32:44.513Z,55.00
2023-08-08T16:35:11.048Z,55.07
2023-08-08T16:37:37.516Z,55.55
2023-08-08T16:40:04.259Z,55.94
2023-08-08T16:42:30.739Z,56.67
2023-08-08T16:44:57.404Z,57.29
2023-08-08T16:47:23.849Z,57.99
2023-08-08T16:49:50.274Z,58.76
2023-08-08T16:52:16.697Z,58.91
2023-08-08T16:54:43.155Z,59.32
2023-08-08T16:57:09.667Z,59.93
2023-08-08T16:59:36.149Z,60.13
2023-08-08T17:02:02.986Z,60.58
2023-08-08T17:04:29.828Z,60.98
2023-08-08T17:06:56.249Z,61.19
2023-08-08T17:09:23.923Z,61.23
2023-08-08T17:11:50.465Z,61.54
2023-08-08T17:14:16.929Z,60.85
2023-08-08T17:16:43.402Z,60.71
2023-08-08T17:19:10.933Z,60.42
2023-08-08T17:21:37.505Z,60.74
2023-08-08T17:24:04.978Z,61.41
2023-08-08T17:26:31.529Z,62.00
2023-08-08T17:28:57.976Z,62.20
2023-08-08T17:31:24.631Z,62.60
2023-08-08T17:33:51.048Z,62.97
2023-08-08T17:36:17.510Z,63.18
2023-08-08T17:38:43.956Z,64.07
2023-08-08T17:41:10.387Z,65.60
2023-08-08T17:43:36.869Z,65.89
2023-08-08T17:46:04.840Z,67.18
2023-08-08T17:48:32.234Z,67.29
2023-08-08T17:50:59.603Z,68.43
2023-08-08T17:53:26.084Z,68.44
2023-08-08T17:55:52.556Z,66.01
2023-08-08T17:58:18.999Z,67.02
2023-08-08T18:00:45.448Z,67.13
2023-08-08T18:03:12.082Z,67.62
2023-08-08T18:05:38.660Z,68.31
2023-08-08T18:08:05.357Z,68.78
2023-08-08T18:10:35.636Z,69.74
2023-08-08T18:13:04.310Z,70.10
2023-08-08T18:15:30.874Z,70.72
2023-08-08T18:17:57.983Z,71.15
2023-08-08T18:20:24.522Z,71.66
2023-08-08T18:22:53.062Z,71.97
2023-08-08T18:25:20.370Z,71.93
2023-08-08T18:27:46.940Z,72.39
2023-08-08T18:30:16.151Z,73.00
2023-08-08T18:32:43.998Z,72.92
2023-08-08T18:35:10.678Z,72.99
2023-08-08T18:37:39.534Z,72.33
2023-08-08T18:40:08.772Z,72.29
2023-08-08T18:42:37.136Z,71.79
2023-08-08T18:45:03.991Z,71.70
2023-08-08T18:47:30.471Z,71.82
2023-08-08T18:49:57.259Z,71.67
2023-08-08T18:52:23.715Z,71.93
2023-08-08T18:54:50.220Z,72.25
2023-08-08T18:57:16.657Z,72.53
2023-08-08T18:59:43.116Z,72.77
2023-08-08T19:02:09.630Z,72.04
2023-08-08T19:04:36.071Z,71.92
2023-08-08T19:07:03.036Z,71.96
2023-08-08T19:09:30.334Z,72.11
2023-08-08T19:11:56.817Z,72.53
2023-08-08T19:14:23.335Z,72.70
2023-08-08T19:16:50.809Z,73.26
2023-08-08T19:19:17.279Z,73.46
2023-08-08T19:21:43.715Z,74.06
2023-08-08T19:24:10.145Z,74.08
2023-08-08T19:26:36.645Z,74.61
2023-08-08T19:29:03.601Z,75.03
2023-08-08T19:31:30.049Z,74.60
2023-08-08T19:34:06.097Z,75.07
2023-08-08T19:36:33.167Z,75.27
2023-08-08T19:38:59.612Z,75.66
2023-08-08T19:41:26.034Z,75.62
2023-08-08T19:43:52.504Z,76.09
2023-08-08T19:46:19.039Z,76.04
2023-08-08T19:48:47.252Z,75.97
2023-08-08T19:51:13.898Z,76.52
2023-08-08T19:53:40.335Z,76.20
2023-08-08T19:56:06.807Z,76.54
2023-08-08T19:58:33.255Z,77.10
2023-08-08T20:00:59.731Z,77.24
2023-08-08T20:03:26.500Z,77.42
2023-08-08T20:05:53.005Z,77.39
2023-08-08T20:08:19.493Z,77.80
2023-08-08T20:10:45.947Z,77.22
2023-08-08T20:13:13.569Z,77.66
2023-08-08T20:15:40.190Z,78.00
2023-08-08T20:18:06.641Z,77.70
2023-08-08T20:20:33.660Z,77.72
2023-08-08T20:23:00.164Z,77.99
2023-08-08T20:25:26.744Z,77.79
2023-08-08T20:27:53.218Z,78.15
2023-08-08T20:30:20.004Z,78.47
2023-08-08T20:32:46.475Z,78.44
2023-08-08T20:35:12.977Z,78.71
2023-08-08T20:37:39.444Z,78.88
2023-08-08T20:40:06.430Z,78.94
2023-08-08T20:42:32.879Z,79.17
2023-08-08T20:44:59.575Z,78.83
2023-08-08T20:47:26.014Z,78.93
2023-08-08T20:49:52.632Z,79.23
2023-08-08T20:52:19.101Z,79.10
2023-08-08T20:54:45.525Z,79.09
2023-08-08T20:57:11.999Z,79.33
2023-08-08T20:59:38.413Z,79.38
2023-08-08T21:02:04.962Z,79.33
2023-08-08T21:04:31.422Z,79.48
2023-08-08T21:06:57.911Z,79.43
2023-08-08T21:09:24.376Z,79.32
2023-08-08T21:11:50.840Z,79.22
2023-08-08T21:14:17.282Z,79.17
2023-08-08T21:16:43.866Z,79.72
2023-08-08T21:19:10.394Z,79.48
2023-08-08T21:21:36.859Z,79.29
2023-08-08T21:24:03.616Z,79.41
2023-08-08T21:26:38.612Z,79.38
2023-08-08T21:29:06.549Z,79.48
2023-08-08T21:31:33.359Z,79.59
2023-08-08T21:33:59.934Z,79.51
2023-08-08T21:36:26.388Z,79.42
2023-08-08T21:38:52.840Z,79.51
2023-08-08T21:41:19.283Z,80.09
2023-08-08T21:43:45.746Z,79.64
2023-08-08T21:46:12.722Z,79.82
2023-08-08T21:48:39.348Z,80.33
2023-08-08T21:51:05.946Z,80.02
2023-08-08T21:53:34.221Z,80.18
2023-08-08T21:56:02.092Z,80.47
2023-08-08T21:58:29.056Z,80.85
2023-08-08T22:00:55.637Z,80.77
2023-08-08T22:03:22.289Z,80.41
2023-08-08T22:05:48.910Z,80.67
2023-08-08T22:08:15.522Z,80.60
2023-08-08T22:10:42.090Z,81.13
2023-08-08T22:13:09.372Z,80.94
2023-08-08T22:15:35.866Z,81.09
2023-08-08T22:18:14.817Z,81.77
2023-08-08T22:20:42.215Z,80.91
2023-08-08T22:23:14.053Z,80.94
2023-08-08T22:25:46.615Z,80.93
2023-08-08T22:28:13.093Z,81.08
2023-08-08T22:30:39.659Z,81.17
2023-08-08T22:33:06.150Z,81.23
2023-08-08T22:35:32.847Z,81.32
2023-08-08T22:37:59.294Z,81.30
2023-08-08T22:40:25.718Z,81.48
2023-08-08T22:42:52.231Z,81.22
2023-08-08T22:45:19.237Z,81.80
2023-08-08T22:47:46.129Z,81.48
2023-08-08T22:50:12.711Z,81.69
2023-08-08T22:52:39.246Z,82.03
2023-08-08T22:55:06.527Z,82.13
2023-08-08T22:57:33.018Z,81.83
2023-08-08T22:59:59.491Z,82.08
2023-08-08T23:02:26.115Z,82.30
2023-08-08T23:04:52.643Z,82.24
2023-08-08T23:07:19.534Z,82.14
2023-08-08T23:09:46.204Z,81.83
2023-08-08T23:12:12.731Z,82.27
2023-08-08T23:14:39.183Z,82.38
2023-08-08T23:17:05.629Z,82.22
2023-08-08T23:19:32.109Z,82.44
2023-08-08T23:21:58.631Z,82.22
2023-08-08T23:24:25.133Z,82.17
2023-08-08T23:26:51.579Z,81.90
2023-08-08T23:29:18.036Z,82.00
2023-08-08T23:31:44.533Z,82.18
2023-08-08T23:34:11.049Z,82.19
2023-08-08T23:36:37.608Z,82.36
2023-08-08T23:39:05.662Z,82.24
2023-08-08T23:41:32.364Z,82.18
2023-08-08T23:43:58.875Z,82.29
2023-08-08T23:46:26.108Z,82.25
2023-08-08T23:48:52.584Z,82.21
2023-08-08T23:51:19.026Z,82.19
2023-08-08T23:53:45.864Z,82.44
2023-08-08T23:56:12.320Z,82.34
2023-08-08T23:58:38.828Z,82.56
